createdAt,value
2018-12-24T00:03:22.691Z,101207.88
2018-12-24T00:05:52.998Z,101215.84
2018-12-24T00:08:23.407Z,101220.23
2018-12-24T00:10:53.754Z,101235.73
2018-12-24T00:13:24.368Z,101230.95
2018-12-24T00:15:54.796Z,101236.30
2018-12-24T00:18:25.584Z,101249.46
2018-12-24T00:21:08.122Z,101253.42
2018-12-24T00:23:38.470Z,101257.86
2018-12-24T00:26:10.233Z,101262.16
2018-12-24T00:28:40.628Z,101259.47
2018-12-24T00:31:11.362Z,101270.95
2018-12-24T00:33:41.717Z,101279.22
2018-12-24T00:44:34.330Z,101289.27
2018-12-24T00:47:04.994Z,101304.52
2018-12-24T00:49:35.374Z,101301.42
2018-12-24T00:52:05.693Z,101311.84
2018-12-24T00:54:36.075Z,101323.75
2018-12-24T00:57:06.431Z,101323.75
2018-12-24T01:02:18.815Z,101345.05
2018-12-24T01:04:49.191Z,101354.20
2018-12-24T01:07:19.619Z,101371.52
2018-12-24T01:09:49.925Z,101373.35
2018-12-24T01:12:24.484Z,101392.63
2018-12-24T01:15:11.195Z,101395.34
2018-12-24T01:21:03.185Z,101406.59
2018-12-24T01:23:33.521Z,101413.47
2018-12-24T01:26:15.110Z,101424.56
2018-12-24T01:31:29.700Z,101436.63
2018-12-24T01:37:21.614Z,101441.97
2018-12-24T01:39:51.960Z,101453.30
2018-12-24T01:42:33.222Z,101459.47
2018-12-24T01:48:18.984Z,101480.34
2018-12-24T01:51:27.267Z,101488.23
2018-12-24T01:54:24.609Z,101501.20
2018-12-24T01:56:56.253Z,101499.48
2018-12-24T02:02:32.315Z,101507.86
2018-12-24T02:05:02.735Z,101516.55
2018-12-24T02:10:55.098Z,101526.91
2018-12-24T02:13:26.893Z,101523.80
2018-12-24T02:15:57.267Z,101522.06
2018-12-24T02:21:59.971Z,101529.97
2018-12-24T02:27:35.436Z,101555.27
2018-12-24T02:33:07.878Z,101554.22
2018-12-24T02:35:38.716Z,101557.75
2018-12-24T02:44:32.962Z,101572.06
2018-12-24T02:47:04.770Z,101580.72
2018-12-24T02:58:11.876Z,101592.46
2018-12-24T03:00:43.163Z,101599.91
2018-12-24T03:06:27.175Z,101618.37
2018-12-24T03:08:57.642Z,101628.85
2018-12-24T03:14:30.326Z,101631.89
2018-12-24T03:17:21.294Z,101637.88
2018-12-24T03:19:51.712Z,101643.09
2018-12-24T03:22:22.454Z,101645.31
2018-12-24T03:25:11.852Z,101653.61
2018-12-24T03:28:01.619Z,101650.09
2018-12-24T03:30:32.125Z,101657.57
2018-12-24T03:33:02.601Z,101660.61
2018-12-24T03:35:45.165Z,101664.17
2018-12-24T03:38:15.528Z,101663.25
2018-12-24T03:40:45.945Z,101670.67
2018-12-24T03:46:37.539Z,101682.41
2018-12-24T03:49:22.754Z,101682.42
2018-12-24T03:51:53.105Z,101692.36
2018-12-24T03:54:42.555Z,101694.17
2018-12-24T03:57:12.920Z,101693.81
2018-12-24T03:59:43.262Z,101704.65
2018-12-24T04:02:13.764Z,101712.92
2018-12-24T04:04:44.113Z,101722.39
2018-12-24T04:07:14.474Z,101729.00
2018-12-24T04:09:44.862Z,101734.81
2018-12-24T04:12:15.244Z,101738.34
2018-12-24T04:14:45.609Z,101740.51
2018-12-24T04:17:16.222Z,101737.36
2018-12-24T04:19:46.656Z,101740.88
2018-12-24T04:22:17.010Z,101746.51
2018-12-24T04:24:47.403Z,101750.91
2018-12-24T04:27:42.008Z,101755.69
2018-12-24T04:30:15.763Z,101755.20
2018-12-24T04:39:38.652Z,101772.66
2018-12-24T04:45:09.395Z,101788.42
2018-12-24T04:47:39.919Z,101789.45
2018-12-24T04:52:59.179Z,101809.03
2018-12-24T04:55:29.626Z,101813.43
2018-12-24T05:07:07.131Z,101830.89
2018-12-24T05:09:37.620Z,101832.63
2018-12-24T05:12:07.957Z,101840.52
2018-12-24T05:14:41.758Z,101851.38
2018-12-24T05:17:12.127Z,101855.33
2018-12-24T05:20:01.376Z,101872.33
2018-12-24T05:31:28.586Z,101903.73
2018-12-24T05:34:10.218Z,101908.55
2018-12-24T05:37:01.029Z,101917.35
2018-12-24T05:39:42.387Z,101922.27
2018-12-24T05:42:12.889Z,101925.71
2018-12-24T05:44:43.416Z,101927.45
2018-12-24T05:47:34.416Z,101934.77
2018-12-24T05:55:29.973Z,101954.16
2018-12-24T05:58:20.910Z,101959.73
2018-12-24T06:07:00.132Z,101990.86
2018-12-24T06:09:30.762Z,102006.56
2018-12-24T06:12:01.058Z,102013.61
2018-12-24T06:14:50.560Z,102021.09
2018-12-24T06:17:32.043Z,102031.06
2018-12-24T06:20:23.087Z,102034.52
2018-12-24T06:26:01.878Z,102052.90
2018-12-24T06:28:32.304Z,102048.97
2018-12-24T06:37:08.347Z,102084.73
2018-12-24T06:42:23.164Z,102095.71
2018-12-24T06:44:53.713Z,102107.16
2018-12-24T06:50:10.296Z,102117.61
2018-12-24T06:52:40.740Z,102115.00
2018-12-24T06:55:11.184Z,102118.45
2018-12-24T07:00:42.349Z,102125.96
2018-12-24T07:03:12.711Z,102131.20
2018-12-24T07:05:43.090Z,102128.58
2018-12-24T07:08:13.410Z,102130.75
2018-12-24T07:10:43.812Z,102136.88
2018-12-24T07:13:16.259Z,102136.04
2018-12-24T07:15:46.616Z,102133.33
2018-12-24T07:18:22.364Z,102135.09
2018-12-24T07:20:52.813Z,102136.87
2018-12-24T07:24:02.869Z,102142.14
2018-12-24T07:26:33.556Z,102158.75
2018-12-24T07:29:15.912Z,102162.20
2018-12-24T07:35:28.395Z,102170.05
2018-12-24T07:40:44.202Z,102180.59
2018-12-24T07:43:14.600Z,102183.63
2018-12-24T07:45:44.975Z,102191.48
2018-12-24T07:51:18.575Z,102193.63
2018-12-24T07:57:03.819Z,102211.15
2018-12-24T08:05:26.507Z,102213.23
2018-12-24T08:10:40.091Z,102218.93
2018-12-24T08:13:10.456Z,102222.50
2018-12-24T08:15:40.920Z,102214.23
2018-12-24T08:21:15.923Z,102229.93
2018-12-24T08:23:46.301Z,102235.61
2018-12-24T08:26:16.828Z,102242.16
2018-12-24T08:28:47.658Z,102249.93
2018-12-24T08:31:38.777Z,102253.95
2018-12-24T08:34:11.355Z,102254.80
2018-12-24T08:40:03.592Z,102276.22
2018-12-24T08:42:53.121Z,102281.87
2018-12-24T08:45:24.415Z,102296.78
2018-12-24T08:48:13.868Z,102312.06
2018-12-24T08:50:44.833Z,102309.91
2018-12-24T08:53:15.304Z,102331.30
2018-12-24T08:55:45.657Z,102323.02
2018-12-24T08:58:16.278Z,102337.42
2018-12-24T09:00:46.782Z,102337.03
2018-12-24T09:03:22.226Z,102345.32
2018-12-24T09:05:52.608Z,102351.02
2018-12-24T09:08:42.067Z,102354.90
2018-12-24T09:11:12.714Z,102356.63
2018-12-24T09:13:43.106Z,102375.48
2018-12-24T09:16:13.446Z,102387.30
2018-12-24T09:18:44.177Z,102388.63
2018-12-24T09:21:14.579Z,102393.00
2018-12-24T09:23:45.129Z,102394.73
2018-12-24T09:28:57.436Z,102411.77
2018-12-24T09:31:27.829Z,102424.44
2018-12-24T09:33:57.998Z,102433.65
2018-12-24T09:36:48.957Z,102437.58
2018-12-24T09:39:30.944Z,102447.60
2018-12-24T09:42:01.435Z,102453.72
2018-12-24T09:44:31.863Z,102459.88
2018-12-24T09:47:02.369Z,102472.53
2018-12-24T09:49:32.939Z,102481.72
2018-12-24T09:52:22.469Z,102486.99
2018-12-24T10:00:36.052Z,102481.79
2018-12-24T10:03:32.771Z,102489.68
2018-12-24T10:06:35.465Z,102499.31
2018-12-24T10:12:30.662Z,102509.83
2018-12-24T10:15:13.546Z,102510.23
2018-12-24T10:17:43.967Z,102518.11
2018-12-24T10:23:38.987Z,102517.23
2018-12-24T10:26:09.330Z,102522.94
2018-12-24T10:28:39.970Z,102519.86
2018-12-24T10:34:51.205Z,102523.78
2018-12-24T10:37:21.568Z,102523.35
2018-12-24T10:39:51.971Z,102518.97
2018-12-24T10:42:22.515Z,102517.66
2018-12-24T10:44:53.124Z,102524.22
2018-12-24T10:47:23.479Z,102523.34
2018-12-24T10:49:53.885Z,102526.42
2018-12-24T10:52:44.608Z,102523.34
2018-12-24T10:55:34.329Z,102529.05
2018-12-24T10:58:06.455Z,102519.84
2018-12-24T11:00:37.907Z,102517.67
2018-12-24T11:03:08.357Z,102525.53
2018-12-24T11:05:38.800Z,102518.55
2018-12-24T11:08:09.240Z,102518.56
2018-12-24T11:10:58.683Z,102518.11
2018-12-24T11:13:29.562Z,102523.80
2018-12-24T11:16:00.076Z,102525.95
2018-12-24T11:18:30.454Z,102531.20
2018-12-24T11:21:00.933Z,102529.03
2018-12-24T11:24:01.762Z,102523.33
2018-12-24T11:26:32.131Z,102528.13
2018-12-24T11:29:16.143Z,102532.95
2018-12-24T11:31:46.536Z,102528.13
2018-12-24T11:34:17.005Z,102531.19
2018-12-24T11:36:47.492Z,102536.45
2018-12-24T11:42:43.055Z,102539.04
2018-12-24T11:45:13.690Z,102544.26
2018-12-24T11:50:50.449Z,102538.55
2018-12-24T11:53:20.930Z,102543.34
2018-12-24T11:55:51.374Z,102548.55
2018-12-24T11:58:32.898Z,102543.79
2018-12-24T12:01:03.416Z,102537.70
2018-12-24T12:03:34.262Z,102541.25
2018-12-24T12:06:19.648Z,102546.48
2018-12-24T12:08:47.541Z,102543.86
2018-12-24T12:11:30.508Z,102553.05
2018-12-24T12:16:55.575Z,102560.88
2018-12-24T12:19:25.958Z,102569.48
2018-12-24T12:21:56.625Z,102570.53
2018-12-24T12:27:29.701Z,102581.51
2018-12-24T12:30:20.546Z,102577.44
2018-12-24T12:33:11.614Z,102584.13
2018-12-24T12:38:38.277Z,102589.63
2018-12-24T12:41:27.642Z,102590.70
2018-12-24T12:44:09.196Z,102601.08
2018-12-24T12:46:39.654Z,102606.36
2018-12-24T12:49:10.107Z,102604.72
2018-12-24T12:51:59.476Z,102604.02
2018-12-24T12:54:48.797Z,102611.91
2018-12-24T12:57:19.298Z,102612.00
2018-12-24T12:59:49.652Z,102611.77
2018-12-24T13:02:32.263Z,102617.69
2018-12-24T13:08:16.688Z,102616.58
2018-12-24T13:10:46.992Z,102610.77
2018-12-24T13:13:17.486Z,102619.60
2018-12-24T13:15:49.218Z,102619.27
2018-12-24T13:18:40.186Z,102618.09
2018-12-24T13:24:21.683Z,102612.53
2018-12-24T13:26:52.124Z,102610.02
2018-12-24T13:29:34.106Z,102618.47
2018-12-24T13:32:04.583Z,102627.25
2018-12-24T13:34:45.812Z,102623.33
2018-12-24T13:39:57.805Z,102643.03
2018-12-24T13:42:28.167Z,102649.19
2018-12-24T13:50:25.316Z,102653.13
2018-12-24T13:53:15.710Z,102651.40
2018-12-24T13:56:06.820Z,102662.32
2018-12-24T13:58:37.214Z,102674.55
2018-12-24T14:01:10.374Z,102678.06
2018-12-24T14:03:40.805Z,102685.50
2018-12-24T14:06:11.121Z,102692.47
2018-12-24T14:08:41.510Z,102692.48
2018-12-24T14:11:11.895Z,102689.85
2018-12-24T14:16:25.701Z,102700.81
2018-12-24T14:21:56.629Z,102702.09
2018-12-24T14:24:26.988Z,102701.25
2018-12-24T14:30:00.321Z,102702.98
2018-12-24T14:32:30.595Z,102708.23
2018-12-24T14:35:01.039Z,102724.81
2018-12-24T14:40:52.592Z,102730.47
2018-12-24T14:43:23.216Z,102740.54
2018-12-24T14:45:53.784Z,102744.89
2018-12-24T14:51:30.065Z,102748.39
2018-12-24T14:54:00.896Z,102754.47
2018-12-24T14:56:31.444Z,102764.53
2018-12-24T15:02:04.410Z,102777.20
2018-12-24T15:04:34.826Z,102774.12
2018-12-24T15:07:05.205Z,102777.19
2018-12-24T15:09:35.600Z,102785.89
2018-12-24T15:14:49.728Z,102797.69
2018-12-24T15:17:20.295Z,102791.13
2018-12-24T15:19:50.666Z,102794.62
2018-12-24T15:22:41.607Z,102795.46
2018-12-24T15:25:12.108Z,102794.13
2018-12-24T15:27:42.602Z,102796.73
2018-12-24T15:33:27.749Z,102797.11
2018-12-24T15:35:58.130Z,102792.73
2018-12-24T15:38:28.511Z,102799.28
2018-12-24T15:40:58.962Z,102801.42
2018-12-24T15:43:49.840Z,102801.40
2018-12-24T15:46:20.325Z,102804.48
2018-12-24T15:48:51.709Z,102795.70
2018-12-24T15:54:43.392Z,102789.95
2018-12-24T15:57:13.894Z,102791.66
2018-12-24T15:59:44.221Z,102797.77
2018-12-24T16:02:36.651Z,102795.13
2018-12-24T16:05:07.023Z,102792.91
2018-12-24T16:07:37.362Z,102793.31
2018-12-24T16:10:07.630Z,102812.06
2018-12-24T16:12:57.029Z,102814.66
2018-12-24T16:15:27.818Z,102819.02
2018-12-24T16:17:58.360Z,102812.87
2018-12-24T16:20:28.850Z,102804.58
2018-12-24T16:23:01.452Z,102804.97
2018-12-24T16:25:31.792Z,102804.08
2018-12-24T16:28:02.111Z,102812.76
2018-12-24T16:30:32.523Z,102819.72
2018-12-24T16:33:23.343Z,102821.48
2018-12-24T16:35:53.678Z,102819.69
2018-12-24T16:38:26.617Z,102815.75
2018-12-24T16:41:18.233Z,102824.89
2018-12-24T16:46:43.263Z,102830.14
2018-12-24T16:49:13.615Z,102837.55
2018-12-24T16:51:44.044Z,102838.37
2018-12-24T16:54:33.835Z,102830.05
2018-12-24T17:02:43.723Z,102827.48
2018-12-24T17:05:34.771Z,102825.74
2018-12-24T17:08:05.291Z,102838.84
2018-12-24T17:10:46.925Z,102853.63
2018-12-24T17:13:17.497Z,102849.64
2018-12-24T17:16:07.013Z,102853.55
2018-12-24T17:24:31.099Z,102842.56
2018-12-24T17:27:01.643Z,102854.79
2018-12-24T17:29:32.023Z,102864.37
2018-12-24T17:32:04.620Z,102872.19
2018-12-24T17:34:55.721Z,102877.80
2018-12-24T17:37:31.913Z,102858.17
2018-12-24T17:40:03.709Z,102871.22
2018-12-24T17:42:34.117Z,102873.41
2018-12-24T17:51:01.461Z,102891.52
2018-12-24T17:53:31.843Z,102892.34
2018-12-24T17:56:02.148Z,102884.45
2018-12-24T17:58:32.536Z,102878.30
2018-12-24T18:01:02.961Z,102878.27
2018-12-24T18:06:35.946Z,102880.13
2018-12-24T18:12:10.685Z,102890.67
2018-12-24T18:14:41.173Z,102902.06
2018-12-24T18:17:11.675Z,102898.55
2018-12-24T18:19:42.072Z,102900.64
2018-12-24T18:22:12.507Z,102901.91
2018-12-24T18:24:42.853Z,102908.86
2018-12-24T18:27:13.281Z,102915.78
2018-12-24T18:30:02.547Z,102930.95
2018-12-24T18:32:44.208Z,102944.91
2018-12-24T18:35:14.578Z,102945.33
2018-12-24T18:37:45.018Z,102929.17
2018-12-24T18:40:26.863Z,102938.36
2018-12-24T18:42:57.216Z,102942.24
2018-12-24T18:45:48.044Z,102944.38
2018-12-24T18:48:18.425Z,102939.95
2018-12-24T18:51:07.789Z,102944.70
2018-12-24T18:53:38.212Z,102960.85
2018-12-24T18:56:08.686Z,102972.62
2018-12-24T18:58:39.059Z,102984.33
2018-12-24T19:01:09.612Z,102992.95
2018-12-24T19:03:40.231Z,102987.65
2018-12-24T19:06:10.604Z,102984.56
2018-12-24T19:08:41.435Z,102986.69
2018-12-24T19:11:33.212Z,102981.44
2018-12-24T19:17:24.904Z,102989.23
2018-12-24T19:19:55.744Z,102998.72
2018-12-24T19:22:26.122Z,103000.79
2018-12-24T19:24:56.976Z,103004.61
2018-12-24T19:27:27.322Z,103012.01
2018-12-24T19:30:20.983Z,103015.01
2018-12-24T19:32:51.410Z,103006.69
2018-12-24T19:35:21.777Z,102999.97
2018-12-24T19:37:52.255Z,102993.80
2018-12-24T19:43:24.957Z,103005.04
2018-12-24T19:46:16.178Z,103006.30
2018-12-24T19:48:46.648Z,103009.22
2018-12-24T19:54:38.573Z,103006.92
2018-12-24T19:57:09.047Z,103008.36
2018-12-24T19:59:39.536Z,103009.33
2018-12-24T20:02:09.865Z,103004.89
2018-12-24T20:07:43.273Z,103016.69
2018-12-24T20:10:14.057Z,103013.73
2018-12-24T20:12:44.608Z,103009.92
2018-12-24T20:15:15.094Z,103021.77
2018-12-24T20:20:48.307Z,103032.84
2018-12-24T20:23:18.806Z,103027.28
2018-12-24T20:25:49.212Z,103031.13
2018-12-24T20:28:19.571Z,103031.64
2018-12-24T20:30:50.001Z,103029.11
2018-12-24T20:33:20.505Z,103033.48
2018-12-24T20:53:28.647Z,103053.37
2018-12-24T20:55:59.372Z,103050.79
2018-12-24T20:58:29.799Z,103049.39
2018-12-24T21:01:00.220Z,103047.27
2018-12-24T21:03:49.889Z,103053.77
2018-12-24T21:06:21.841Z,103049.80
2018-12-24T21:08:52.323Z,103051.48
2018-12-24T21:11:22.773Z,103053.63
2018-12-24T21:13:53.160Z,103053.08
2018-12-24T21:16:44.304Z,103051.72
2018-12-24T21:19:14.695Z,103057.84
2018-12-24T21:22:04.667Z,103044.70
2018-12-24T21:30:19.666Z,103045.36
2018-12-24T21:32:50.157Z,103040.05
2018-12-24T21:38:24.212Z,103033.21
2018-12-24T21:40:54.978Z,103024.97
2018-12-24T21:43:25.626Z,103024.97
2018-12-24T21:46:16.578Z,103020.13
2018-12-24T21:48:47.118Z,103020.23
2018-12-24T21:51:56.958Z,103018.03
2018-12-24T21:54:27.503Z,103022.16
2018-12-24T21:56:58.039Z,103041.25
2018-12-24T21:59:28.801Z,103035.84
2018-12-24T22:02:18.030Z,103041.89
2018-12-24T22:04:48.600Z,103033.92
2018-12-24T22:07:38.238Z,103029.06
2018-12-24T22:10:08.805Z,103025.09
2018-12-24T22:12:39.220Z,103028.75
2018-12-24T22:15:09.668Z,103037.16
2018-12-24T22:18:00.815Z,103049.02
2018-12-24T22:26:02.739Z,103053.92
2018-12-24T22:28:45.145Z,103056.55
2018-12-24T22:31:15.629Z,103049.56
2018-12-24T22:33:46.165Z,103047.31
2018-12-24T22:36:16.587Z,103050.36
2018-12-24T22:38:47.072Z,103057.00
2018-12-24T22:41:17.649Z,103057.86
2018-12-24T22:43:48.600Z,103062.22
2018-12-24T22:46:39.949Z,103051.41
2018-12-24T22:49:30.038Z,103044.06
2018-12-24T22:52:12.271Z,103033.05
2018-12-24T22:54:42.692Z,103038.59
2018-12-24T22:57:13.207Z,103036.80
2018-12-24T22:59:43.754Z,103035.91
2018-12-24T23:02:34.680Z,103036.61
2018-12-24T23:05:05.155Z,103035.17
2018-12-24T23:10:16.126Z,103025.08
2018-12-24T23:15:37.284Z,103033.23
2018-12-24T23:18:09.691Z,103025.81
2018-12-24T23:26:31.624Z,103023.80
2018-12-24T23:29:03.736Z,103021.86
2018-12-24T23:31:34.150Z,103026.13
2018-12-24T23:34:04.652Z,103031.67
2018-12-24T23:36:35.117Z,103027.67
2018-12-24T23:39:46.207Z,103021.48
2018-12-24T23:42:24.108Z,103022.35
2018-12-24T23:47:57.217Z,103021.09
2018-12-24T23:50:39.350Z,103014.14
2018-12-24T23:53:09.744Z,103009.42
2018-12-24T23:56:00.731Z,103009.83
2018-12-24T23:58:50.043Z,103005.87
